Time;durP1;ratioP1;P1;durP2;ratioP2;P2;SDS_P1;SDS_P2;PMS_P1;PMS_P2;Temp;Humidity;BMP_temperature;BMP_pressure;BME280_temperature;BME280_humidity;BME280_pressure;Samples;Min_cycle;Max_cycle;Signal;HPM_P1;HPM_P2
2022/06/06 00:01:39;;;;;;;6.28;2.90;;;;;;;;;;4999884;28;20036;-73
2022/06/06 00:04:05;;;;;;;6.68;3.40;;;;;;;;;;4998621;28;20030;-73
2022/06/06 00:06:30;;;;;;;4.93;3.35;;;;;;;;;;5000080;28;20403;-74
2022/06/06 00:08:57;;;;;;;4.63;3.30;;;;;;;;;;4998466;28;20042;-75
2022/06/06 00:11:23;;;;;;;3.95;3.25;;;;;;;;;;4999623;28;20061;-74
2022/06/06 00:13:49;;;;;;;4.80;3.88;;;;;;;;;;4998710;28;20089;-74
2022/06/06 00:16:16;;;;;;;5.30;3.38;;;;;;;;;;5008259;28;20029;-74
2022/06/06 00:18:41;;;;;;;8.02;4.15;;;;;;;;;;5001379;28;20075;-73
2022/06/06 00:21:09;;;;;;;6.80;4.00;;;;;;;;;;4997991;28;20129;-73
2022/06/06 00:23:36;;;;;;;5.45;4.32;;;;;;;;;;4997813;28;20050;-73
2022/06/06 00:26:07;;;;;;;6.90;4.43;;;;;;;;;;5013356;28;20506;-73
2022/06/06 00:28:37;;;;;;;5.85;4.18;;;;;;;;;;5001494;28;20485;-73
2022/06/06 00:36:35;;;;;;;7.18;4.53;;;;;;;;;;4999250;28;20620;-73
2022/06/06 00:39:03;;;;;;;7.50;4.88;;;;;;;;;;4999569;28;20034;-73
2022/06/06 00:41:28;;;;;;;4.50;4.07;;;;;;;;;;4998789;28;20252;-73
2022/06/06 00:44:11;;;;;;;6.47;4.75;;;;;;;;;;4999731;28;20113;-72
2022/06/06 00:46:50;;;;;;;6.38;4.55;;;;;;;;;;5017906;28;20099;-74
2022/06/06 00:49:40;;;;;;;8.55;4.68;;;;;;;;;;4990581;28;20045;-74
2022/06/06 00:52:11;;;;;;;6.72;4.65;;;;;;;;;;5000211;28;20364;-74
2022/06/06 00:54:38;;;;;;;3.90;3.53;;;;;;;;;;4997684;28;20482;-75
2022/06/06 00:57:13;;;;;;;7.30;4.00;;;;;;;;;;5000597;28;20073;-74
2022/06/06 00:59:40;;;;;;;6.07;4.40;;;;;;;;;;4996414;28;20105;-73
2022/06/06 01:02:10;;;;;;;5.97;3.78;;;;;;;;;;5001892;28;20215;-74
2022/06/06 01:04:36;;;;;;;6.28;3.90;;;;;;;;;;4994387;28;20034;-74
2022/06/06 01:07:05;;;;;;;4.25;3.58;;;;;;;;;;5010887;28;20060;-73
2022/06/06 01:09:30;;;;;;;4.85;3.38;;;;;;;;;;4989414;28;20023;-73
2022/06/06 01:12:03;;;;;;;4.78;2.80;;;;;;;;;;5001794;28;20056;-73
2022/06/06 01:14:33;;;;;;;4.00;3.30;;;;;;;;;;4995122;28;20022;-73
2022/06/06 01:17:05;;;;;;;5.45;3.70;;;;;;;;;;5000634;28;20040;-73
2022/06/06 01:19:33;;;;;;;3.53;3.10;;;;;;;;;;4997576;28;20026;-74
2022/06/06 01:22:17;;;;;;;3.85;3.40;;;;;;;;;;5015012;28;20057;-74
2022/06/06 01:24:45;;;;;;;6.85;3.72;;;;;;;;;;5012239;28;20023;-73
2022/06/06 01:27:29;;;;;;;6.97;4.10;;;;;;;;;;4999728;28;20057;-75
2022/06/06 01:30:03;;;;;;;3.80;3.13;;;;;;;;;;5010749;28;20034;-72
2022/06/06 01:32:33;;;;;;;3.83;2.78;;;;;;;;;;5015518;28;20293;-73
2022/06/06 01:34:58;;;;;;;4.43;3.40;;;;;;;;;;4997320;28;20030;-73
2022/06/06 01:37:32;;;;;;;3.67;3.03;;;;;;;;;;5000231;28;20062;-72
2022/06/06 01:40:00;;;;;;;3.92;2.90;;;;;;;;;;5004397;28;20097;-73
2022/06/06 01:42:40;;;;;;;4.78;3.63;;;;;;;;;;4996940;28;20449;-73
2022/06/06 01:45:14;;;;;;;3.72;2.80;;;;;;;;;;5010592;28;20070;-73
2022/06/06 01:47:50;;;;;;;5.88;2.92;;;;;;;;;;5000094;28;20044;-73
2022/06/06 01:50:18;;;;;;;3.47;2.70;;;;;;;;;;4988590;28;20041;-73
2022/06/06 01:52:59;;;;;;;3.55;2.70;;;;;;;;;;5016940;28;20042;-73
2022/06/06 01:55:27;;;;;;;3.97;2.50;;;;;;;;;;4998357;28;20052;-73
2022/06/06 01:57:57;;;;;;;5.22;3.40;;;;;;;;;;4996783;28;20029;-73
2022/06/06 02:00:23;;;;;;;5.25;2.80;;;;;;;;;;5013427;28;20061;-72
2022/06/06 02:02:49;;;;;;;4.78;2.80;;;;;;;;;;4998459;28;20071;-73
2022/06/06 02:05:15;;;;;;;4.65;2.97;;;;;;;;;;5005398;28;20045;-74
2022/06/06 02:07:41;;;;;;;4.35;3.70;;;;;;;;;;5006315;28;20077;-73
2022/06/06 02:10:09;;;;;;;7.85;3.22;;;;;;;;;;5013427;28;20026;-72
2022/06/06 02:12:39;;;;;;;4.65;3.85;;;;;;;;;;4996995;28;20021;-74
2022/06/06 02:15:08;;;;;;;6.45;4.10;;;;;;;;;;4997812;28;20026;-72
2022/06/06 02:17:34;;;;;;;7.25;4.22;;;;;;;;;;4999146;28;20107;-74
2022/06/06 02:20:01;;;;;;;8.20;4.15;;;;;;;;;;5013067;28;20037;-73
2022/06/06 02:22:27;;;;;;;7.32;4.97;;;;;;;;;;4999655;28;20053;-73
2022/06/06 02:24:54;;;;;;;10.77;4.72;;;;;;;;;;4997902;28;20440;-73
2022/06/06 02:27:19;;;;;;;10.07;4.88;;;;;;;;;;4997659;28;20097;-74
2022/06/06 02:29:45;;;;;;;8.75;5.15;;;;;;;;;;4998808;28;20164;-73
2022/06/06 02:32:11;;;;;;;9.02;4.75;;;;;;;;;;4996361;28;20030;-73
2022/06/06 02:34:37;;;;;;;10.20;5.90;;;;;;;;;;5013703;28;20030;-72
2022/06/06 02:37:03;;;;;;;6.43;5.05;;;;;;;;;;5016305;28;20034;-73
2022/06/06 02:39:29;;;;;;;7.68;4.93;;;;;;;;;;4999391;28;20026;-74
2022/06/06 02:41:55;;;;;;;8.18;5.72;;;;;;;;;;5001498;28;20032;-74
2022/06/06 02:44:20;;;;;;;10.80;5.68;;;;;;;;;;5001799;28;20022;-74
2022/06/06 02:46:47;;;;;;;6.55;4.97;;;;;;;;;;5001562;28;20021;-74
2022/06/06 02:49:12;;;;;;;9.00;5.50;;;;;;;;;;5001941;28;20570;-74
2022/06/06 02:51:38;;;;;;;9.90;5.40;;;;;;;;;;5000048;28;20116;-73
2022/06/06 02:54:03;;;;;;;10.52;5.55;;;;;;;;;;5000555;28;20124;-73
2022/06/06 02:56:29;;;;;;;7.55;5.50;;;;;;;;;;4999721;28;20474;-74
2022/06/06 02:58:57;;;;;;;6.97;5.65;;;;;;;;;;5001820;28;20018;-74
2022/06/06 03:01:23;;;;;;;11.02;6.35;;;;;;;;;;5000863;28;20036;-72
2022/06/06 03:03:48;;;;;;;9.25;5.85;;;;;;;;;;5012260;28;20026;-73
2022/06/06 03:06:32;;;;;;;9.30;5.60;;;;;;;;;;5000321;28;20070;-73
2022/06/06 03:09:01;;;;;;;9.07;5.65;;;;;;;;;;5000046;28;20033;-72
2022/06/06 03:11:48;;;;;;;10.02;6.35;;;;;;;;;;4997969;28;20157;-73
2022/06/06 03:14:31;;;;;;;8.13;6.05;;;;;;;;;;4994872;28;20096;-73
2022/06/06 03:20:47;;;;;;;8.50;5.65;;;;;;;;;;5001503;28;20096;-73
2022/06/06 03:23:20;;;;;;;6.60;5.57;;;;;;;;;;4994848;28;20069;-73
2022/06/06 03:26:11;;;;;;;11.15;5.65;;;;;;;;;;5000998;28;20050;-73
2022/06/06 03:28:45;;;;;;;7.63;5.90;;;;;;;;;;5003743;28;20026;-73
2022/06/06 03:31:38;;;;;;;7.85;6.10;;;;;;;;;;4997652;28;20041;-74
2022/06/06 03:34:20;;;;;;;9.85;6.25;;;;;;;;;;5014388;28;20050;-73
2022/06/06 03:36:52;;;;;;;10.48;5.53;;;;;;;;;;5003331;28;20416;-73
2022/06/06 03:39:46;;;;;;;6.43;5.70;;;;;;;;;;4997859;28;20023;-73
2022/06/06 03:42:30;;;;;;;6.47;4.75;;;;;;;;;;5001357;28;20041;-74
2022/06/06 03:44:58;;;;;;;8.02;5.45;;;;;;;;;;5003551;28;20069;-74
2022/06/06 03:47:44;;;;;;;9.23;5.35;;;;;;;;;;5004124;28;20053;-73
2022/06/06 03:50:33;;;;;;;6.32;5.47;;;;;;;;;;4995662;28;20042;-74
2022/06/06 03:53:27;;;;;;;6.68;5.35;;;;;;;;;;5018892;28;20115;-73
2022/06/06 03:56:16;;;;;;;10.25;4.88;;;;;;;;;;4995884;28;20046;-74
2022/06/06 03:58:42;;;;;;;8.82;6.45;;;;;;;;;;4997618;28;20061;-74
2022/06/06 04:01:10;;;;;;;8.82;5.13;;;;;;;;;;5002537;28;20073;-74
2022/06/06 04:03:37;;;;;;;8.65;6.05;;;;;;;;;;5012710;28;20041;-74
2022/06/06 04:06:04;;;;;;;6.63;4.30;;;;;;;;;;5000998;28;20073;-74
2022/06/06 04:08:32;;;;;;;7.15;4.90;;;;;;;;;;5012549;28;20030;-74
2022/06/06 04:11:15;;;;;;;9.85;5.28;;;;;;;;;;5002787;28;20064;-76
2022/06/06 04:14:05;;;;;;;6.85;4.40;;;;;;;;;;4997095;28;20502;-74
2022/06/06 04:17:09;;;;;;;7.07;4.07;;;;;;;;;;4996987;28;20307;-74
2022/06/06 04:19:54;;;;;;;7.55;4.20;;;;;;;;;;4999985;28;20081;-74
2022/06/06 04:22:25;;;;;;;9.20;4.43;;;;;;;;;;5002585;28;20126;-74
2022/06/06 04:25:00;;;;;;;10.05;4.63;;;;;;;;;;4996488;28;20080;-74
2022/06/06 04:27:42;;;;;;;6.93;4.40;;;;;;;;;;4991591;28;20065;-73
2022/06/06 04:30:21;;;;;;;5.68;4.55;;;;;;;;;;4999760;28;20033;-74
2022/06/06 04:33:36;;;;;;;8.32;4.28;;;;;;;;;;5000734;28;20022;-73
2022/06/06 04:36:24;;;;;;;6.60;4.18;;;;;;;;;;5037695;28;20040;-74
2022/06/06 04:39:17;;;;;;;4.85;4.22;;;;;;;;;;4996199;28;20022;-73
2022/06/06 04:41:45;;;;;;;6.72;4.50;;;;;;;;;;4999180;28;20041;-74
2022/06/06 04:44:20;;;;;;;10.40;5.05;;;;;;;;;;4997797;28;20167;-74
2022/06/06 04:47:00;;;;;;;9.60;4.85;;;;;;;;;;5001843;28;20032;-73
2022/06/06 04:49:28;;;;;;;6.55;4.28;;;;;;;;;;4995582;28;20057;-75
2022/06/06 04:51:54;;;;;;;8.27;4.65;;;;;;;;;;5016026;28;20125;-74
2022/06/06 04:54:23;;;;;;;6.03;4.38;;;;;;;;;;4996204;28;20125;-73
2022/06/06 04:56:51;;;;;;;6.72;4.43;;;;;;;;;;4999457;28;20032;-73
2022/06/06 04:59:19;;;;;;;9.52;4.47;;;;;;;;;;4997386;28;20022;-73
2022/06/06 05:01:46;;;;;;;4.82;4.28;;;;;;;;;;4999203;28;20037;-74
2022/06/06 05:04:11;;;;;;;8.20;4.35;;;;;;;;;;4997885;28;20113;-73
2022/06/06 05:07:01;;;;;;;6.32;4.60;;;;;;;;;;5000375;28;20101;-73
2022/06/06 05:09:33;;;;;;;6.10;4.50;;;;;;;;;;5001661;28;20384;-74
2022/06/06 05:12:24;;;;;;;10.48;4.40;;;;;;;;;;4996625;28;20018;-75
2022/06/06 05:15:24;;;;;;;5.15;4.40;;;;;;;;;;4989768;28;20034;-73
2022/06/06 05:18:14;;;;;;;4.93;4.40;;;;;;;;;;4990429;28;20042;-73
2022/06/06 05:21:04;;;;;;;7.53;4.60;;;;;;;;;;4983885;28;20529;-73
2022/06/06 05:23:50;;;;;;;7.88;5.20;;;;;;;;;;4985224;28;20549;-75
2022/06/06 05:26:35;;;;;;;6.90;4.00;;;;;;;;;;4987842;28;20113;-74
2022/06/06 05:29:43;;;;;;;5.25;3.97;;;;;;;;;;4989456;28;20034;-74
2022/06/06 05:32:49;;;;;;;7.57;4.95;;;;;;;;;;4985547;28;20029;-72
2022/06/06 05:35:42;;;;;;;24.08;18.83;;;;;;;;;;4982695;28;20744;-75
2022/06/06 05:38:42;;;;;;;6.53;4.10;;;;;;;;;;4986959;28;20019;-73
2022/06/06 05:41:33;;;;;;;5.35;3.72;;;;;;;;;;5014327;28;20038;-74
2022/06/06 05:44:23;;;;;;;4.38;3.97;;;;;;;;;;4995490;28;20030;-74
2022/06/06 05:47:03;;;;;;;4.32;3.13;;;;;;;;;;4994362;28;20567;-74
2022/06/06 05:49:50;;;;;;;5.05;3.28;;;;;;;;;;4991536;28;20037;-74
2022/06/06 05:52:27;;;;;;;17.45;4.30;;;;;;;;;;4984739;28;20055;-75
2022/06/06 05:55:17;;;;;;;3.42;2.72;;;;;;;;;;4989330;28;20030;-74
2022/06/06 05:57:42;;;;;;;5.88;3.15;;;;;;;;;;4992935;28;20478;-75
2022/06/06 06:00:45;;;;;;;4.20;2.97;;;;;;;;;;4992432;28;20033;-75
2022/06/06 06:03:17;;;;;;;3.08;2.78;;;;;;;;;;4995447;28;20038;-75
2022/06/06 06:06:33;;;;;;;5.93;3.03;;;;;;;;;;4984223;28;20113;-73
2022/06/06 06:09:32;;;;;;;2.85;2.65;;;;;;;;;;5005093;28;20085;-73
2022/06/06 06:12:13;;;;;;;4.38;2.30;;;;;;;;;;4982504;28;20113;-72
2022/06/06 06:15:10;;;;;;;2.00;1.90;;;;;;;;;;4988841;28;20129;-73
2022/06/06 06:17:39;;;;;;;3.33;2.20;;;;;;;;;;4955192;28;20073;-74
2022/06/06 06:20:18;;;;;;;2.85;1.80;;;;;;;;;;5002911;28;20026;-74
2022/06/06 06:22:48;;;;;;;5.35;2.47;;;;;;;;;;4988083;28;20090;-72
2022/06/06 06:25:17;;;;;;;6.35;4.10;;;;;;;;;;4979510;28;20078;-72
2022/06/06 06:27:44;;;;;;;2.60;2.40;;;;;;;;;;4983276;28;20032;-72
2022/06/06 06:30:11;;;;;;;3.88;1.92;;;;;;;;;;4983605;28;20168;-72
2022/06/06 06:32:39;;;;;;;3.72;1.80;;;;;;;;;;4980045;28;20041;-72
2022/06/06 06:35:21;;;;;;;4.93;2.00;;;;;;;;;;4984216;28;20034;-77
2022/06/06 06:38:15;;;;;;;3.80;1.58;;;;;;;;;;4984888;28;20138;-74
2022/06/06 06:41:01;;;;;;;2.50;2.30;;;;;;;;;;4970897;28;20031;-73
2022/06/06 06:43:46;;;;;;;3.17;1.90;;;;;;;;;;4997334;28;20037;-75
2022/06/06 06:46:19;;;;;;;2.72;1.77;;;;;;;;;;4971561;28;20038;-74
2022/06/06 06:48:46;;;;;;;2.20;1.90;;;;;;;;;;4995884;28;20056;-74
2022/06/06 06:51:51;;;;;;;1.52;1.42;;;;;;;;;;4958635;28;20042;-77
2022/06/06 06:54:44;;;;;;;2.65;1.65;;;;;;;;;;4996694;28;20038;-76
2022/06/06 06:57:21;;;;;;;1.92;1.63;;;;;;;;;;5000224;28;20053;-76
2022/06/06 07:00:02;;;;;;;3.33;1.85;;;;;;;;;;4980305;28;20054;-75
2022/06/06 07:08:48;;;;;;;6.80;1.50;;;;;;;;;;4987567;28;20075;-73
2022/06/06 07:11:31;;;;;;;3.78;2.03;;;;;;;;;;4981708;28;20667;-76
2022/06/06 07:14:04;;;;;;;5.13;1.58;;;;;;;;;;4992482;28;20034;-74
2022/06/06 07:16:38;;;;;;;4.45;1.90;;;;;;;;;;4982493;28;20068;-75
2022/06/06 07:19:22;;;;;;;1.98;1.50;;;;;;;;;;4996191;28;20044;-74
2022/06/06 07:21:49;;;;;;;1.98;1.55;;;;;;;;;;4980384;28;20058;-73
2022/06/06 07:24:21;;;;;;;2.83;1.45;;;;;;;;;;4996224;28;20030;-73
2022/06/06 07:26:47;;;;;;;2.10;1.83;;;;;;;;;;4995316;28;20096;-72
2022/06/06 07:29:16;;;;;;;2.08;1.80;;;;;;;;;;4977784;28;20038;-74
2022/06/06 07:32:26;;;;;;;5.63;1.85;;;;;;;;;;4980689;28;20022;-73
2022/06/06 07:35:16;;;;;;;5.25;1.92;;;;;;;;;;4971286;28;20081;-75
2022/06/06 07:38:03;;;;;;;5.00;1.97;;;;;;;;;;4983732;28;20112;-74
2022/06/06 07:40:43;;;;;;;2.30;1.70;;;;;;;;;;4977322;28;20280;-75
2022/06/06 07:43:19;;;;;;;3.80;1.80;;;;;;;;;;4996273;28;20030;-72
2022/06/06 07:45:50;;;;;;;3.85;1.70;;;;;;;;;;4975231;28;20030;-73
2022/06/06 07:48:34;;;;;;;1.75;1.58;;;;;;;;;;4981003;28;20398;-74
2022/06/06 07:51:07;;;;;;;3.83;2.00;;;;;;;;;;4977139;28;20037;-73
2022/06/06 07:53:59;;;;;;;3.90;1.60;;;;;;;;;;4984230;28;20132;-73
2022/06/06 07:56:49;;;;;;;1.70;1.60;;;;;;;;;;4982338;28;20050;-73
2022/06/06 07:59:45;;;;;;;2.85;1.63;;;;;;;;;;4978684;28;20026;-74
2022/06/06 08:02:25;;;;;;;2.65;1.77;;;;;;;;;;4979716;28;20044;-74
2022/06/06 08:05:20;;;;;;;1.85;1.65;;;;;;;;;;4977738;28;20031;-74
2022/06/06 08:08:00;;;;;;;3.85;1.80;;;;;;;;;;4996713;28;20088;-74
2022/06/06 08:10:40;;;;;;;5.83;2.30;;;;;;;;;;4979929;28;20809;-73
2022/06/06 08:13:05;;;;;;;2.72;2.40;;;;;;;;;;4995905;28;20026;-75
2022/06/06 08:15:40;;;;;;;2.70;2.10;;;;;;;;;;4976980;28;20491;-74
2022/06/06 08:18:24;;;;;;;2.40;2.00;;;;;;;;;;4976780;28;20029;-74
2022/06/06 08:20:50;;;;;;;4.47;2.15;;;;;;;;;;4988981;28;20254;-73
2022/06/06 08:23:17;;;;;;;7.78;1.90;;;;;;;;;;4976581;28;20465;-73
2022/06/06 08:25:44;;;;;;;3.95;1.80;;;;;;;;;;4995126;28;20121;-73
2022/06/06 08:28:10;;;;;;;1.98;1.80;;;;;;;;;;4983219;28;20037;-75
2022/06/06 08:30:37;;;;;;;3.90;2.45;;;;;;;;;;4979958;28;20105;-74
2022/06/06 08:33:03;;;;;;;2.33;1.88;;;;;;;;;;4998065;28;20031;-75
2022/06/06 08:35:52;;;;;;;2.65;1.90;;;;;;;;;;4976837;28;20037;-72
2022/06/06 08:38:38;;;;;;;2.95;1.73;;;;;;;;;;4979584;28;20025;-73
2022/06/06 08:41:18;;;;;;;4.38;2.35;;;;;;;;;;4977440;28;20042;-75
2022/06/06 08:44:00;;;;;;;4.70;2.42;;;;;;;;;;4979053;28;20140;-75
2022/06/06 08:47:03;;;;;;;3.78;2.25;;;;;;;;;;4979605;28;20449;-74
2022/06/06 08:53:14;;;;;;;3.67;1.92;;;;;;;;;;4981950;28;20176;-73
2022/06/06 08:56:01;;;;;;;5.03;2.45;;;;;;;;;;4977721;28;20030;-74
2022/06/06 08:59:12;;;;;;;2.75;2.05;;;;;;;;;;4980343;28;20035;-74
2022/06/06 09:01:43;;;;;;;2.63;2.42;;;;;;;;;;4997143;28;20112;-74
2022/06/06 09:04:11;;;;;;;;;;;;;;;;;;4978933;28;20070;-74
2022/06/06 09:06:52;;;;;;;1.75;1.65;;;;;;;;;;4980226;28;20007;-74
2022/06/06 09:09:45;;;;;;;1.73;1.60;;;;;;;;;;4975115;28;20038;-75
2022/06/06 09:12:26;;;;;;;2.40;2.03;;;;;;;;;;4981086;28;20389;-75
2022/06/06 09:14:57;;;;;;;2.42;1.95;;;;;;;;;;4980942;28;20034;-75
2022/06/06 09:17:22;;;;;;;;;;;;;;;;;;4977657;28;20038;-75
2022/06/06 09:20:20;;;;;;;2.15;1.63;;;;;;;;;;4975479;28;20377;-75
2022/06/06 09:23:13;;;;;;;1.60;1.50;;;;;;;;;;4979625;28;20050;-75
2022/06/06 09:25:59;;;;;;;5.30;1.90;;;;;;;;;;4979775;28;20064;-75
2022/06/06 09:28:43;;;;;;;2.90;1.65;;;;;;;;;;4989064;28;20584;-75
2022/06/06 09:31:36;;;;;;;3.72;2.92;;;;;;;;;;4995200;28;20088;-77
2022/06/06 09:34:11;;;;;;;2.20;2.00;;;;;;;;;;4983018;28;21027;-76
2022/06/06 09:37:04;;;;;;;2.90;1.70;;;;;;;;;;4977314;28;20413;-76
2022/06/06 09:39:40;;;;;;;1.65;1.05;;;;;;;;;;4977539;28;20029;-74
2022/06/06 09:42:33;;;;;;;1.70;1.60;;;;;;;;;;4983179;28;20052;-74
2022/06/06 09:45:13;;;;;;;1.70;1.60;;;;;;;;;;4990444;28;20062;-75
2022/06/06 09:48:11;;;;;;;6.25;2.10;;;;;;;;;;4978378;28;20030;-77
2022/06/06 09:51:01;;;;;;;2.97;1.55;;;;;;;;;;4979394;28;20046;-75
2022/06/06 10:00:11;;;;;;;2.00;1.67;;;;;;;;;;4983144;28;20128;-75
2022/06/06 10:03:05;;;;;;;1.77;1.65;;;;;;;;;;4986223;28;20041;-77
2022/06/06 10:05:48;;;;;;;2.13;1.40;;;;;;;;;;4979865;28;20081;-77
2022/06/06 10:08:20;;;;;;;2.42;1.63;;;;;;;;;;4982812;28;20032;-76
2022/06/06 10:10:57;;;;;;;;;;;;;;;;;;4978394;28;20210;-76
2022/06/06 10:13:30;;;;;;;5.55;1.52;;;;;;;;;;4981762;28;19922;-78
2022/06/06 10:15:59;;;;;;;3.00;1.73;;;;;;;;;;4981899;28;20532;-78
2022/06/06 10:18:44;;;;;;;1.60;1.50;;;;;;;;;;4984942;28;20112;-75
2022/06/06 10:21:22;;;;;;;4.03;2.80;;;;;;;;;;4980773;28;20041;-75
2022/06/06 10:24:19;;;;;;;1.75;1.52;;;;;;;;;;4983413;28;20474;-77
2022/06/06 10:27:19;;;;;;;4.57;3.05;;;;;;;;;;4984591;28;20427;-77
2022/06/06 10:32:37;;;;;;;6.47;1.88;;;;;;;;;;4985733;28;20088;-76
2022/06/06 10:35:29;;;;;;;1.60;1.50;;;;;;;;;;4994029;28;20034;-77
2022/06/06 10:38:16;;;;;;;3.22;1.50;;;;;;;;;;4983951;28;20026;-77
2022/06/06 10:41:00;;;;;;;15.32;4.82;;;;;;;;;;4982406;28;20085;-76
2022/06/06 10:43:47;;;;;;;2.25;1.63;;;;;;;;;;4984968;28;20029;-78
2022/06/06 10:46:22;;;;;;;5.05;3.13;;;;;;;;;;4985214;28;20546;-76
2022/06/06 10:49:15;;;;;;;11.27;7.25;;;;;;;;;;4987566;28;20030;-76
2022/06/06 10:51:56;;;;;;;10.02;3.67;;;;;;;;;;4985778;28;20041;-78
2022/06/06 10:54:50;;;;;;;2.78;2.50;;;;;;;;;;5002708;28;21336;-78
2022/06/06 10:57:43;;;;;;;3.53;1.88;;;;;;;;;;4984774;28;20076;-77
2022/06/06 11:00:19;;;;;;;3.03;1.40;;;;;;;;;;4982257;28;20026;-75
2022/06/06 11:03:13;;;;;;;4.80;2.05;;;;;;;;;;4981913;28;20039;-76
2022/06/06 11:06:16;;;;;;;1.42;1.33;;;;;;;;;;5002000;28;20050;-75
2022/06/06 11:09:04;;;;;;;4.40;1.70;;;;;;;;;;4985041;28;20031;-75
2022/06/06 11:11:42;;;;;;;2.42;1.50;;;;;;;;;;4983116;28;20033;-74
2022/06/06 11:14:23;;;;;;;3.67;1.85;;;;;;;;;;4982452;28;20034;-74
2022/06/06 11:17:06;;;;;;;5.20;1.58;;;;;;;;;;4977060;28;20423;-77
2022/06/06 11:20:09;;;;;;;4.68;2.00;;;;;;;;;;4981448;28;20030;-75
2022/06/06 11:23:01;;;;;;;4.85;1.80;;;;;;;;;;4980379;28;20053;-76
2022/06/06 11:25:29;;;;;;;1.98;1.50;;;;;;;;;;4998479;28;21217;-78
2022/06/06 11:28:38;;;;;;;1.95;1.50;;;;;;;;;;4987372;28;20033;-76
2022/06/06 11:31:24;;;;;;;2.30;1.60;;;;;;;;;;4978235;28;20568;-77
2022/06/06 11:34:13;;;;;;;2.13;1.70;;;;;;;;;;4985747;28;20265;-76
2022/06/06 11:37:02;;;;;;;2.05;1.75;;;;;;;;;;4988912;28;20034;-78
2022/06/06 11:40:14;;;;;;;2.92;1.73;;;;;;;;;;4988299;28;20026;-77
2022/06/06 11:43:12;;;;;;;5.10;1.65;;;;;;;;;;4995158;28;20034;-81
2022/06/06 11:46:13;;;;;;;3.30;1.48;;;;;;;;;;4991628;28;20027;-78
2022/06/06 11:48:41;;;;;;;;;;;;;;;;;;4986644;28;20679;-77
2022/06/06 11:51:46;;;;;;;1.55;1.45;;;;;;;;;;4977900;28;20670;-78
2022/06/06 11:54:39;;;;;;;2.42;1.20;;;;;;;;;;4984508;28;20077;-76
2022/06/06 11:57:55;;;;;;;4.00;1.58;;;;;;;;;;4986595;28;20025;-79
2022/06/06 12:00:34;;;;;;;4.22;2.13;;;;;;;;;;4996321;28;20715;-78
2022/06/06 12:03:02;;;;;;;4.25;1.35;;;;;;;;;;4983751;28;20043;-76
2022/06/06 12:06:09;;;;;;;2.00;1.52;;;;;;;;;;4971768;28;20559;-77
2022/06/06 12:09:00;;;;;;;1.85;1.40;;;;;;;;;;4982495;28;20089;-76
2022/06/06 12:11:55;;;;;;;2.63;1.60;;;;;;;;;;4981032;28;20030;-77
2022/06/06 12:14:32;;;;;;;5.47;1.65;;;;;;;;;;4977977;28;20277;-76
2022/06/06 12:16:58;;;;;;;2.40;1.58;;;;;;;;;;4976042;28;20061;-75
2022/06/06 12:19:49;;;;;;;2.05;1.63;;;;;;;;;;4981211;28;20125;-76
2022/06/06 12:22:21;;;;;;;4.47;2.00;;;;;;;;;;4987858;28;20066;-76
2022/06/06 12:25:14;;;;;;;2.45;1.73;;;;;;;;;;4970217;28;20057;-75
2022/06/06 12:27:53;;;;;;;2.05;1.33;;;;;;;;;;4991719;28;20046;-76
2022/06/06 12:30:30;;;;;;;2.33;1.50;;;;;;;;;;4993153;28;20030;-76
2022/06/06 12:33:10;;;;;;;1.90;1.60;;;;;;;;;;4976791;28;20544;-75
2022/06/06 12:35:43;;;;;;;3.08;1.85;;;;;;;;;;4992434;28;20368;-76
2022/06/06 12:38:34;;;;;;;3.35;1.88;;;;;;;;;;4974205;28;20212;-74
2022/06/06 12:41:11;;;;;;;1.75;1.30;;;;;;;;;;4973910;28;20038;-76
2022/06/06 12:43:56;;;;;;;2.45;1.23;;;;;;;;;;4994255;28;20042;-78
2022/06/06 12:46:42;;;;;;;4.18;1.50;;;;;;;;;;4981932;28;20042;-77
2022/06/06 12:49:39;;;;;;;4.63;1.50;;;;;;;;;;4980281;28;20427;-76
2022/06/06 12:52:44;;;;;;;2.28;1.63;;;;;;;;;;4981754;28;20034;-77
2022/06/06 12:55:46;;;;;;;4.72;1.40;;;;;;;;;;4979376;28;20052;-76
2022/06/06 12:58:46;;;;;;;1.52;0.98;;;;;;;;;;4998047;28;20176;-78
2022/06/06 13:01:40;;;;;;;2.53;1.02;;;;;;;;;;4980999;28;20049;-76
2022/06/06 13:04:11;;;;;;;4.28;1.35;;;;;;;;;;4979993;28;20026;-78
2022/06/06 13:07:01;;;;;;;1.58;1.10;;;;;;;;;;4982186;28;20030;-76
2022/06/06 13:09:37;;;;;;;3.20;1.40;;;;;;;;;;4981507;28;20116;-78
2022/06/06 13:12:21;;;;;;;3.08;1.35;;;;;;;;;;4983778;28;20892;-76
2022/06/06 13:15:19;;;;;;;1.42;1.10;;;;;;;;;;4994207;28;20030;-75
2022/06/06 13:18:15;;;;;;;1.85;1.48;;;;;;;;;;4981577;28;20050;-74
2022/06/06 13:20:51;;;;;;;2.97;1.85;;;;;;;;;;4995242;28;20056;-78
2022/06/06 13:23:48;;;;;;;1.23;1.00;;;;;;;;;;4984475;28;20061;-76
2022/06/06 13:26:36;;;;;;;3.92;1.10;;;;;;;;;;4979914;28;20026;-75
2022/06/06 13:29:04;;;;;;;4.10;1.90;;;;;;;;;;4977482;28;20044;-75
2022/06/06 13:32:07;;;;;;;2.03;1.17;;;;;;;;;;4995734;28;20470;-76
2022/06/06 13:35:22;;;;;;;1.52;1.23;;;;;;;;;;4995242;28;20608;-75
2022/06/06 13:38:06;;;;;;;2.08;0.95;;;;;;;;;;5013764;28;20070;-79
2022/06/06 13:40:59;;;;;;;2.33;1.40;;;;;;;;;;4976258;28;20045;-79
2022/06/06 13:43:46;;;;;;;2.30;1.23;;;;;;;;;;4981123;28;20038;-81
2022/06/06 13:46:33;;;;;;;1.85;1.30;;;;;;;;;;4979043;28;20056;-74
2022/06/06 13:49:05;;;;;;;2.08;1.25;;;;;;;;;;4977902;28;20065;-78
2022/06/06 13:51:49;;;;;;;3.35;1.95;;;;;;;;;;4988320;28;20093;-76
2022/06/06 13:54:33;;;;;;;6.18;1.70;;;;;;;;;;4981108;28;20026;-78
2022/06/06 13:57:13;;;;;;;1.50;1.40;;;;;;;;;;4982202;28;20038;-79
2022/06/06 14:00:00;;;;;;;2.90;1.50;;;;;;;;;;4978980;28;20627;-75
2022/06/06 14:02:45;;;;;;;1.55;1.45;;;;;;;;;;4977238;28;20109;-77
2022/06/06 14:05:42;;;;;;;2.97;1.50;;;;;;;;;;4979370;28;20524;-79
2022/06/06 14:08:23;;;;;;;3.92;1.48;;;;;;;;;;5003030;28;20034;-76
2022/06/06 14:11:00;;;;;;;1.73;1.58;;;;;;;;;;4992112;28;20524;-78
2022/06/06 14:13:57;;;;;;;8.65;3.05;;;;;;;;;;4999208;28;20022;-76
2022/06/06 14:16:34;;;;;;;1.80;1.10;;;;;;;;;;4984071;28;20133;-76
2022/06/06 14:19:21;;;;;;;2.03;1.60;;;;;;;;;;5008352;28;20069;-78
2022/06/06 14:21:53;;;;;;;3.28;1.50;;;;;;;;;;4984328;28;20380;-77
2022/06/06 14:24:25;;;;;;;1.17;1.15;;;;;;;;;;4985567;28;20120;-77
2022/06/06 14:27:00;;;;;;;2.78;1.83;;;;;;;;;;4981460;28;20593;-75
2022/06/06 14:29:30;;;;;;;8.05;3.00;;;;;;;;;;5010227;28;20124;-77
2022/06/06 14:32:02;;;;;;;2.63;1.60;;;;;;;;;;5000166;28;20421;-76
2022/06/06 14:34:41;;;;;;;1.33;1.23;;;;;;;;;;4986042;28;20030;-76
2022/06/06 14:37:17;;;;;;;4.05;1.50;;;;;;;;;;4991540;28;20038;-79
2022/06/06 14:39:45;;;;;;;1.67;1.25;;;;;;;;;;4988538;28;20109;-77
2022/06/06 14:42:12;;;;;;;4.93;1.60;;;;;;;;;;4984233;28;20032;-80
2022/06/06 14:44:42;;;;;;;1.98;1.10;;;;;;;;;;5011898;28;20022;-76
2022/06/06 14:47:16;;;;;;;3.20;2.88;;;;;;;;;;4982527;28;20042;-75
2022/06/06 14:49:46;;;;;;;2.17;1.45;;;;;;;;;;4988850;28;20435;-76
2022/06/06 14:52:20;;;;;;;3.25;2.95;;;;;;;;;;4987317;28;20080;-76
2022/06/06 14:54:51;;;;;;;4.47;2.40;;;;;;;;;;4996571;28;20026;-80
2022/06/06 14:57:17;;;;;;;2.63;1.30;;;;;;;;;;4994179;28;20023;-81
2022/06/06 14:59:50;;;;;;;5.50;1.60;;;;;;;;;;4991534;28;20046;-80
2022/06/06 15:02:28;;;;;;;2.05;1.30;;;;;;;;;;4995640;28;20027;-80
2022/06/06 15:05:21;;;;;;;4.57;1.73;;;;;;;;;;5009159;28;20038;-76
2022/06/06 15:07:53;;;;;;;3.42;1.67;;;;;;;;;;4990236;28;20030;-78
2022/06/06 15:10:37;;;;;;;3.05;1.88;;;;;;;;;;4992171;28;20073;-78
2022/06/06 15:13:04;;;;;;;1.55;1.45;;;;;;;;;;4990330;28;20038;-76
2022/06/06 15:15:31;;;;;;;1.58;1.48;;;;;;;;;;4987367;28;20046;-76
2022/06/06 15:17:58;;;;;;;1.55;1.45;;;;;;;;;;4985617;28;20027;-75
2022/06/06 15:20:34;;;;;;;1.63;1.52;;;;;;;;;;4980394;28;20046;-75
2022/06/06 15:23:16;;;;;;;2.15;1.65;;;;;;;;;;4986783;28;20050;-80
2022/06/06 15:26:00;;;;;;;2.58;1.98;;;;;;;;;;4984570;28;20145;-79
2022/06/06 15:28:49;;;;;;;5.40;1.83;;;;;;;;;;4985935;28;20060;-78
2022/06/06 15:31:46;;;;;;;2.90;1.83;;;;;;;;;;4999260;28;20022;-79
2022/06/06 15:34:37;;;;;;;3.92;1.60;;;;;;;;;;5009118;28;20363;-79
2022/06/06 15:37:37;;;;;;;4.72;2.13;;;;;;;;;;4989662;28;20117;-78
2022/06/06 15:40:05;;;;;;;1.70;1.30;;;;;;;;;;4986842;28;20034;-79
2022/06/06 15:42:44;;;;;;;2.80;1.90;;;;;;;;;;4989424;28;20526;-76
2022/06/06 15:45:19;;;;;;;3.53;1.70;;;;;;;;;;4973619;28;20343;-76
2022/06/06 15:48:08;;;;;;;3.10;1.63;;;;;;;;;;4989707;28;20030;-76
2022/06/06 15:50:49;;;;;;;1.67;1.50;;;;;;;;;;4989852;28;20046;-77
2022/06/06 15:53:20;;;;;;;3.40;1.60;;;;;;;;;;4990928;28;20062;-78
2022/06/06 15:55:55;;;;;;;3.92;2.35;;;;;;;;;;4976672;28;20071;-77
2022/06/06 15:58:31;;;;;;;5.15;3.08;;;;;;;;;;4970212;28;20019;-77
2022/06/06 16:01:08;;;;;;;6.50;2.20;;;;;;;;;;4984325;28;20023;-77
2022/06/06 16:03:43;;;;;;;2.20;1.88;;;;;;;;;;4971184;28;20023;-78
2022/06/06 16:06:11;;;;;;;2.75;1.80;;;;;;;;;;4987946;28;20030;-78
2022/06/06 16:08:55;;;;;;;1.73;1.63;;;;;;;;;;4989456;28;20548;-78
2022/06/06 16:11:29;;;;;;;4.07;1.50;;;;;;;;;;4990534;28;20121;-78
2022/06/06 16:14:26;;;;;;;1.77;1.67;;;;;;;;;;4989720;28;20038;-78
2022/06/06 16:16:54;;;;;;;4.53;1.30;;;;;;;;;;4999705;28;20526;-78
2022/06/06 16:19:34;;;;;;;2.50;1.67;;;;;;;;;;4973733;28;20435;-79
2022/06/06 16:22:27;;;;;;;2.33;1.40;;;;;;;;;;4988772;28;20387;-78
2022/06/06 16:25:21;;;;;;;2.13;1.80;;;;;;;;;;4990901;28;20054;-76
2022/06/06 16:28:07;;;;;;;1.70;1.60;;;;;;;;;;4988727;28;20069;-78